createdAt,value
2022-12-17T00:00:13.906Z,90.15
2022-12-17T00:02:59.229Z,89.88
2022-12-17T00:05:44.245Z,90.26
2022-12-17T00:08:30.609Z,89.99
2022-12-17T00:11:17.380Z,90.98
2022-12-17T00:14:02.084Z,90.44
2022-12-17T00:16:57.630Z,90.36
2022-12-17T00:19:42.295Z,90.23
2022-12-17T00:22:26.888Z,89.66
2022-12-17T00:25:11.636Z,91.21
2022-12-17T00:27:56.487Z,89.73
2022-12-17T00:30:41.587Z,91.17
2022-12-17T00:33:26.492Z,90.97
2022-12-17T00:36:12.484Z,89.84
2022-12-17T00:38:58.179Z,90.67
2022-12-17T00:41:44.867Z,90.69
2022-12-17T00:44:29.871Z,89.71
2022-12-17T00:47:14.896Z,89.91
2022-12-17T00:49:59.866Z,90.00
2022-12-17T00:52:44.923Z,90.98
2022-12-17T00:55:29.627Z,90.01
2022-12-17T00:58:15.898Z,90.25
2022-12-17T01:01:12.385Z,90.42
2022-12-17T01:03:57.194Z,89.78
2022-12-17T01:06:41.866Z,90.13
2022-12-17T01:09:26.584Z,90.33
2022-12-17T01:12:11.492Z,90.70
2022-12-17T01:14:57.169Z,90.95
2022-12-17T01:17:42.099Z,91.11
2022-12-17T01:20:26.960Z,90.21
2022-12-17T01:23:11.744Z,89.92
2022-12-17T01:25:56.494Z,91.02
2022-12-17T01:28:45.082Z,90.54
2022-12-17T01:31:34.613Z,90.93
2022-12-17T01:34:20.358Z,90.78
2022-12-17T01:37:05.657Z,90.70
2022-12-17T01:39:50.404Z,90.51
2022-12-17T01:42:35.070Z,89.78
2022-12-17T01:45:21.227Z,90.04
2022-12-17T01:48:11.597Z,89.99
2022-12-17T01:51:00.880Z,90.06
2022-12-17T01:53:53.299Z,90.94
2022-12-17T01:56:38.149Z,90.04
2022-12-17T01:59:26.197Z,90.19
2022-12-17T02:02:11.324Z,90.41
2022-12-17T02:04:57.459Z,90.37
2022-12-17T02:07:48.468Z,90.88
2022-12-17T02:10:41.641Z,91.15
2022-12-17T02:13:34.617Z,90.02
2022-12-17T02:16:27.828Z,90.12
2022-12-17T02:19:25.435Z,89.81
2022-12-17T02:22:15.914Z,89.93
2022-12-17T02:25:14.172Z,90.86
2022-12-17T02:27:59.786Z,90.20
2022-12-17T02:30:45.005Z,91.06
2022-12-17T02:33:30.570Z,90.55
2022-12-17T02:36:24.646Z,90.47
2022-12-17T02:39:10.520Z,90.29
2022-12-17T02:42:05.196Z,90.40
2022-12-17T02:44:52.453Z,89.97
2022-12-17T02:47:38.968Z,90.68
2022-12-17T02:50:25.164Z,89.89
2022-12-17T02:53:12.054Z,90.98
2022-12-17T02:55:56.784Z,90.05
2022-12-17T02:58:41.817Z,89.33
2022-12-17T03:01:27.281Z,89.63
2022-12-17T03:04:13.160Z,90.14
2022-12-17T03:06:57.811Z,90.68
2022-12-17T03:09:42.582Z,90.23
2022-12-17T03:12:27.629Z,89.48
2022-12-17T03:15:12.436Z,89.60
2022-12-17T03:17:57.108Z,90.44
2022-12-17T03:20:41.855Z,90.26
2022-12-17T03:23:29.245Z,89.09
2022-12-17T03:26:19.751Z,90.03
2022-12-17T03:29:04.824Z,89.49
2022-12-17T03:31:51.071Z,90.28
2022-12-17T03:34:36.369Z,89.22
2022-12-17T03:37:21.094Z,90.16
2022-12-17T03:40:05.746Z,89.61
2022-12-17T03:42:50.621Z,90.28
2022-12-17T03:45:35.466Z,90.16
2022-12-17T03:48:23.639Z,89.40
2022-12-17T03:51:10.282Z,89.57
2022-12-17T03:53:55.139Z,89.70
2022-12-17T03:56:39.967Z,89.24
2022-12-17T03:59:24.746Z,89.49
2022-12-17T04:02:09.659Z,89.00
2022-12-17T04:04:54.714Z,90.03
2022-12-17T04:07:39.434Z,89.66
2022-12-17T04:10:24.695Z,89.22
2022-12-17T04:13:09.864Z,89.29
2022-12-17T04:15:54.680Z,89.62
2022-12-17T04:18:39.808Z,89.53
2022-12-17T04:21:24.421Z,88.37
2022-12-17T04:24:09.706Z,90.20
2022-12-17T04:26:54.528Z,90.03
2022-12-17T04:29:41.454Z,89.48
2022-12-17T04:32:27.545Z,89.77
2022-12-17T04:35:15.084Z,89.75
2022-12-17T04:38:00.006Z,88.21
2022-12-17T04:40:44.673Z,89.61
2022-12-17T04:43:31.806Z,89.30
2022-12-17T04:46:16.972Z,89.27
2022-12-17T04:49:02.086Z,89.30
2022-12-17T04:51:46.740Z,89.14
2022-12-17T04:54:31.420Z,89.10
2022-12-17T04:57:16.248Z,88.61
2022-12-17T05:00:00.897Z,89.46
2022-12-17T05:02:45.744Z,88.61
2022-12-17T05:05:30.789Z,88.56
2022-12-17T05:08:15.835Z,89.08
2022-12-17T05:11:01.697Z,88.32
2022-12-17T05:13:46.362Z,88.43
2022-12-17T05:16:31.638Z,88.95
2022-12-17T05:19:27.525Z,88.80
2022-12-17T05:22:12.274Z,89.15
2022-12-17T05:24:57.082Z,89.33
2022-12-17T05:27:49.509Z,89.11
2022-12-17T05:30:34.208Z,89.68
2022-12-17T05:33:20.474Z,89.49
2022-12-17T05:36:12.777Z,88.40
2022-12-17T05:38:57.482Z,88.70
2022-12-17T05:41:42.245Z,88.24
2022-12-17T05:44:27.001Z,89.80
2022-12-17T05:47:11.687Z,88.42
2022-12-17T05:49:56.585Z,88.79
2022-12-17T05:52:41.715Z,89.21
2022-12-17T05:55:26.879Z,89.02
2022-12-17T05:58:19.583Z,88.86
2022-12-17T06:01:04.342Z,89.24
2022-12-17T06:03:49.035Z,89.57
2022-12-17T06:06:34.023Z,88.32
2022-12-17T06:09:19.454Z,89.48
2022-12-17T06:12:04.204Z,88.95
2022-12-17T06:14:48.988Z,88.11
2022-12-17T06:17:33.653Z,88.68
2022-12-17T06:20:18.526Z,88.28
2022-12-17T06:23:03.288Z,89.14
2022-12-17T06:25:48.078Z,89.56
2022-12-17T06:28:32.727Z,88.18
2022-12-17T06:31:17.512Z,88.59
2022-12-17T06:34:02.571Z,89.06
2022-12-17T06:36:47.220Z,89.39
2022-12-17T06:39:31.923Z,88.87
2022-12-17T06:42:16.775Z,88.74
2022-12-17T06:45:01.507Z,89.11
2022-12-17T06:47:46.101Z,89.33
2022-12-17T06:50:30.882Z,89.20
2022-12-17T06:53:20.663Z,88.76
2022-12-17T06:56:05.352Z,88.57
2022-12-17T06:58:50.159Z,87.72
2022-12-17T07:01:34.934Z,88.26
2022-12-17T07:04:20.118Z,88.46
2022-12-17T07:07:04.884Z,87.67
2022-12-17T07:09:49.725Z,88.15
2022-12-17T07:12:34.304Z,87.99
2022-12-17T07:15:19.024Z,88.34
2022-12-17T07:18:14.842Z,87.90
2022-12-17T07:20:59.649Z,88.46
2022-12-17T07:23:44.376Z,88.73
2022-12-17T07:26:29.069Z,87.62
2022-12-17T07:29:13.795Z,88.42
2022-12-17T07:31:58.719Z,88.80
2022-12-17T07:34:43.528Z,88.12
2022-12-17T07:37:28.251Z,87.85
2022-12-17T07:40:13.014Z,88.76
2022-12-17T07:43:00.588Z,87.64
2022-12-17T07:45:45.386Z,88.30
2022-12-17T07:48:30.568Z,88.18
2022-12-17T07:51:15.885Z,88.63
2022-12-17T07:54:02.011Z,88.64
2022-12-17T07:56:46.665Z,87.96
2022-12-17T07:59:31.415Z,87.42
2022-12-17T08:02:16.327Z,87.31
2022-12-17T08:05:01.492Z,87.57
2022-12-17T08:07:46.360Z,87.86
2022-12-17T08:10:31.256Z,87.83
2022-12-17T08:13:22.558Z,87.96
2022-12-17T08:16:07.921Z,86.79
2022-12-17T08:18:52.911Z,87.90
2022-12-17T08:21:37.694Z,87.95
2022-12-17T08:24:22.978Z,87.07
2022-12-17T08:27:08.257Z,87.00
2022-12-17T08:29:52.905Z,87.03
2022-12-17T08:32:37.652Z,86.72
2022-12-17T08:35:22.835Z,86.86
2022-12-17T08:38:07.586Z,86.75
2022-12-17T08:40:52.261Z,86.55
2022-12-17T08:43:37.262Z,86.59
2022-12-17T08:46:42.510Z,85.62
2022-12-17T08:49:27.380Z,86.53
2022-12-17T08:52:12.154Z,87.08
2022-12-17T08:54:57.077Z,86.59
2022-12-17T08:57:41.760Z,86.78
2022-12-17T09:00:27.545Z,86.57
2022-12-17T09:03:16.815Z,86.31
2022-12-17T09:06:02.076Z,86.67
2022-12-17T09:08:46.822Z,85.50
2022-12-17T09:11:32.150Z,86.89
2022-12-17T09:14:16.902Z,86.39
2022-12-17T09:17:01.681Z,86.48
2022-12-17T09:19:46.898Z,86.47
2022-12-17T09:22:31.720Z,85.29
2022-12-17T09:25:16.449Z,86.27
2022-12-17T09:28:01.693Z,85.90
2022-12-17T09:30:46.464Z,86.10
2022-12-17T09:33:36.112Z,86.20
2022-12-17T09:36:23.047Z,86.08
2022-12-17T09:39:08.247Z,85.71
2022-12-17T09:42:06.392Z,84.62
2022-12-17T09:44:57.249Z,84.73
2022-12-17T09:47:53.622Z,85.48
2022-12-17T09:50:39.002Z,84.74
2022-12-17T09:53:36.189Z,84.31
2022-12-17T09:56:22.451Z,84.07
2022-12-17T09:59:07.164Z,84.04
2022-12-17T10:01:53.627Z,83.90
2022-12-17T10:04:53.919Z,83.96
2022-12-17T10:07:42.686Z,84.07
2022-12-17T10:10:39.223Z,84.20
2022-12-17T10:13:36.696Z,84.66
2022-12-17T10:16:48.205Z,84.94
2022-12-17T10:19:40.744Z,84.74
2022-12-17T10:22:32.143Z,84.42
2022-12-17T10:25:21.592Z,84.44
2022-12-17T10:28:06.305Z,83.51
2022-12-17T10:30:51.704Z,83.82
2022-12-17T10:33:39.378Z,83.69
2022-12-17T10:36:38.893Z,83.32
2022-12-17T10:39:25.212Z,82.17
2022-12-17T10:42:09.912Z,82.12
2022-12-17T10:44:56.137Z,82.36
2022-12-17T10:47:46.196Z,81.99
2022-12-17T10:50:37.050Z,81.73
2022-12-17T10:53:34.092Z,81.51
2022-12-17T10:56:27.291Z,81.50
2022-12-17T10:59:13.066Z,80.99
2022-12-17T11:02:00.248Z,81.67
2022-12-17T11:04:50.799Z,81.44
2022-12-17T11:07:44.077Z,80.48
2022-12-17T11:10:36.822Z,81.66
2022-12-17T11:13:27.517Z,81.27
2022-12-17T11:16:15.720Z,81.04
2022-12-17T11:19:21.163Z,79.82
2022-12-17T11:22:09.075Z,80.12
2022-12-17T11:25:02.535Z,79.80
2022-12-17T11:27:52.859Z,80.38
2022-12-17T11:30:38.171Z,80.26
2022-12-17T11:34:01.769Z,80.71
2022-12-17T11:36:59.193Z,79.56
2022-12-17T11:40:02.679Z,79.71
2022-12-17T11:42:55.533Z,78.75
2022-12-17T11:45:55.825Z,78.45
2022-12-17T11:48:52.900Z,78.29
2022-12-17T11:51:48.852Z,78.64
2022-12-17T11:54:43.240Z,79.57
2022-12-17T11:57:42.528Z,78.99
2022-12-17T12:00:41.512Z,78.82
2022-12-17T12:03:45.307Z,77.97
2022-12-17T12:06:40.633Z,77.60
2022-12-17T12:09:49.210Z,77.89
2022-12-17T12:12:39.012Z,76.45
2022-12-17T12:15:32.839Z,76.43
2022-12-17T12:18:45.046Z,75.91
2022-12-17T12:21:39.927Z,75.69
2022-12-17T12:25:08.516Z,76.23
2022-12-17T12:28:29.444Z,75.97
2022-12-17T12:31:35.656Z,75.31
2022-12-17T12:34:25.394Z,76.51
2022-12-17T12:37:11.634Z,76.82
2022-12-17T12:40:02.955Z,76.07
2022-12-17T12:42:57.163Z,76.89
2022-12-17T12:45:54.050Z,76.56
2022-12-17T12:48:50.864Z,76.17
2022-12-17T12:51:41.216Z,75.96
2022-12-17T12:55:04.614Z,74.98
2022-12-17T12:57:55.089Z,75.22
2022-12-17T13:00:47.994Z,75.98
2022-12-17T13:03:45.356Z,75.70
2022-12-17T13:06:42.729Z,75.18
2022-12-17T13:09:15.125Z,75.74
2022-12-17T13:11:43.860Z,75.44
2022-12-17T13:14:16.290Z,76.23
2022-12-17T13:16:48.544Z,75.46
2022-12-17T13:19:31.646Z,75.44
2022-12-17T13:22:12.333Z,77.73
2022-12-17T13:24:38.650Z,78.65
2022-12-17T13:27:05.214Z,78.12
2022-12-17T13:29:34.563Z,78.87
2022-12-17T13:32:01.021Z,79.68
2022-12-17T13:34:45.353Z,79.79
2022-12-17T13:37:31.913Z,80.53
2022-12-17T13:40:22.599Z,80.28
2022-12-17T13:42:49.108Z,80.27
2022-12-17T13:45:17.124Z,80.40
2022-12-17T13:47:43.493Z,81.16
2022-12-17T13:50:38.862Z,82.11
2022-12-17T13:53:10.324Z,83.02
2022-12-17T13:55:37.927Z,82.06
2022-12-17T13:58:04.232Z,81.63
2022-12-17T14:00:32.316Z,82.77
2022-12-17T14:03:10.479Z,82.08
2022-12-17T14:05:42.181Z,82.68
2022-12-17T14:08:09.235Z,81.61
2022-12-17T14:10:37.794Z,82.55
2022-12-17T14:13:08.568Z,81.74
2022-12-17T14:15:35.154Z,82.58
2022-12-17T14:18:02.810Z,81.89
2022-12-17T14:20:31.022Z,82.22
2022-12-17T14:23:03.061Z,82.01
2022-12-17T14:25:35.764Z,82.33
2022-12-17T14:28:21.010Z,82.39
2022-12-17T14:31:24.521Z,82.21
2022-12-17T14:33:36.741Z,80.88
2022-12-17T14:36:25.779Z,80.78
2022-12-17T14:39:16.540Z,81.71
2022-12-17T14:42:01.202Z,81.18
2022-12-17T14:44:29.557Z,81.46
2022-12-17T14:47:21.986Z,80.91
2022-12-17T14:49:59.149Z,81.13
2022-12-17T14:52:43.835Z,82.66
2022-12-17T14:55:27.119Z,82.97
2022-12-17T14:58:05.689Z,81.80
2022-12-17T15:00:32.196Z,83.07
2022-12-17T15:02:58.639Z,81.99
2022-12-17T15:05:25.220Z,81.93
2022-12-17T15:07:51.854Z,82.21
2022-12-17T15:10:20.120Z,83.34
2022-12-17T15:12:47.737Z,82.55
2022-12-17T15:15:15.630Z,82.18
2022-12-17T15:17:42.164Z,83.08
2022-12-17T15:20:19.040Z,82.41
2022-12-17T15:22:46.434Z,82.07
2022-12-17T15:25:14.874Z,83.24
2022-12-17T15:27:41.530Z,83.04
2022-12-17T15:30:13.130Z,83.40
2022-12-17T15:32:39.968Z,83.47
2022-12-17T15:35:07.131Z,83.11
2022-12-17T15:37:33.470Z,83.23
2022-12-17T15:39:59.819Z,83.05
2022-12-17T15:42:44.721Z,82.73
2022-12-17T15:45:12.324Z,82.88
2022-12-17T15:47:38.649Z,82.27
2022-12-17T15:50:05.373Z,82.71
2022-12-17T15:52:31.738Z,82.73
2022-12-17T15:54:58.107Z,82.87
2022-12-17T15:57:24.716Z,83.34
2022-12-17T15:59:52.029Z,83.86
2022-12-17T16:02:18.691Z,83.10
2022-12-17T16:04:45.352Z,83.84
2022-12-17T16:07:11.690Z,83.37
2022-12-17T16:09:37.987Z,83.37
2022-12-17T16:12:04.545Z,83.17
2022-12-17T16:14:30.919Z,83.44
2022-12-17T16:16:57.236Z,83.21
2022-12-17T16:19:23.568Z,83.67
2022-12-17T16:21:50.031Z,83.67
2022-12-17T16:24:16.418Z,83.73
2022-12-17T16:26:42.754Z,83.83
2022-12-17T16:29:09.091Z,83.53
2022-12-17T16:31:35.570Z,83.77
2022-12-17T16:34:02.100Z,82.82
2022-12-17T16:36:28.647Z,83.71
2022-12-17T16:38:55.005Z,83.16
2022-12-17T16:41:22.141Z,83.14
2022-12-17T16:43:48.744Z,83.13
2022-12-17T16:46:36.093Z,83.52
2022-12-17T16:49:06.634Z,83.79
2022-12-17T16:51:33.920Z,83.50
2022-12-17T16:54:08.299Z,83.89
2022-12-17T16:56:40.033Z,83.05
2022-12-17T16:59:09.926Z,84.10
2022-12-17T17:01:37.425Z,83.98
2022-12-17T17:04:05.683Z,83.14
2022-12-17T17:06:34.100Z,84.30
2022-12-17T17:09:04.411Z,83.78
2022-12-17T17:11:31.100Z,84.00
2022-12-17T17:13:57.699Z,83.98
2022-12-17T17:16:25.006Z,83.20
2022-12-17T17:18:52.919Z,84.17
2022-12-17T17:21:19.195Z,84.42
2022-12-17T17:23:50.890Z,84.28
2022-12-17T17:26:17.647Z,83.81
2022-12-17T17:28:45.504Z,83.68
2022-12-17T17:31:13.821Z,83.93
2022-12-17T17:33:46.595Z,83.96
2022-12-17T17:36:25.285Z,84.30
2022-12-17T17:38:53.809Z,83.82
2022-12-17T17:41:23.262Z,83.23
2022-12-17T17:43:58.512Z,84.54
2022-12-17T17:46:26.425Z,83.75
2022-12-17T17:48:57.011Z,84.47
2022-12-17T17:51:59.779Z,83.72
2022-12-17T17:54:14.501Z,83.39
2022-12-17T17:56:42.668Z,83.48
2022-12-17T17:59:11.934Z,84.72
2022-12-17T18:01:42.061Z,84.16
2022-12-17T18:04:15.934Z,83.83
2022-12-17T18:07:02.615Z,84.21
2022-12-17T18:09:30.091Z,85.40
2022-12-17T18:11:56.695Z,85.39
2022-12-17T18:14:23.091Z,84.82
2022-12-17T18:16:49.465Z,85.44
2022-12-17T18:19:20.785Z,84.53
2022-12-17T18:21:48.095Z,85.38
2022-12-17T18:24:16.007Z,84.08
2022-12-17T18:26:43.918Z,83.94
2022-12-17T18:29:12.232Z,84.44
2022-12-17T18:31:39.031Z,85.17
2022-12-17T18:34:06.406Z,84.64
2022-12-17T18:36:37.182Z,84.75
2022-12-17T18:39:10.626Z,84.00
2022-12-17T18:41:56.262Z,84.69
2022-12-17T18:44:23.123Z,84.18
2022-12-17T18:46:49.779Z,83.56
2022-12-17T18:49:19.169Z,83.86
2022-12-17T18:51:47.653Z,83.50
2022-12-17T18:54:17.370Z,84.83
2022-12-17T18:57:01.729Z,83.78
2022-12-17T18:59:30.458Z,84.04
2022-12-17T19:01:57.650Z,84.77
2022-12-17T19:04:25.013Z,85.30
2022-12-17T19:06:53.320Z,84.25
2022-12-17T19:09:25.534Z,83.98
2022-12-17T19:11:53.465Z,84.34
2022-12-17T19:14:21.989Z,84.85
2022-12-17T19:16:52.965Z,84.33
2022-12-17T19:19:20.039Z,85.72
2022-12-17T19:21:46.394Z,85.11
2022-12-17T19:24:15.361Z,84.48
2022-12-17T19:26:42.492Z,85.67
2022-12-17T19:29:10.484Z,84.57
2022-12-17T19:31:37.601Z,85.41
2022-12-17T19:34:06.841Z,84.64
2022-12-17T19:36:35.818Z,84.26
2022-12-17T19:39:06.039Z,84.92
2022-12-17T19:41:32.805Z,85.39
2022-12-17T19:44:02.091Z,85.82
2022-12-17T19:46:30.476Z,85.63
2022-12-17T19:48:57.362Z,86.35
2022-12-17T19:51:27.521Z,85.29
2022-12-17T19:53:54.857Z,86.41
2022-12-17T19:56:29.701Z,86.80
2022-12-17T19:59:00.714Z,86.01
2022-12-17T20:01:30.309Z,85.18
2022-12-17T20:03:57.376Z,86.75
2022-12-17T20:06:27.500Z,87.08
2022-12-17T20:08:54.080Z,86.23
2022-12-17T20:11:33.271Z,85.60
2022-12-17T20:14:12.990Z,85.13
2022-12-17T20:16:42.059Z,84.95
2022-12-17T20:19:11.982Z,85.71
2022-12-17T20:21:38.822Z,85.53
2022-12-17T20:24:06.020Z,85.69
2022-12-17T20:26:32.480Z,86.55
2022-12-17T20:28:59.237Z,85.50
2022-12-17T20:31:27.024Z,85.84
2022-12-17T20:33:53.433Z,85.22
2022-12-17T20:36:21.386Z,86.31
2022-12-17T20:38:47.771Z,85.77
2022-12-17T20:41:20.420Z,86.11
2022-12-17T20:43:47.783Z,86.45
2022-12-17T20:46:14.652Z,87.24
2022-12-17T20:48:43.374Z,87.19
2022-12-17T20:51:20.843Z,87.04
2022-12-17T20:53:47.697Z,87.22
2022-12-17T20:56:18.236Z,85.80
2022-12-17T20:58:45.433Z,85.93
2022-12-17T21:01:18.440Z,86.73
2022-12-17T21:03:45.791Z,85.96
2022-12-17T21:06:14.951Z,85.71
2022-12-17T21:08:49.166Z,86.16
2022-12-17T21:11:18.229Z,85.67
2022-12-17T21:13:44.811Z,85.87
2022-12-17T21:16:23.126Z,85.35
2022-12-17T21:18:49.548Z,85.56
2022-12-17T21:21:19.859Z,85.26
2022-12-17T21:23:47.444Z,86.51
2022-12-17T21:26:22.538Z,85.89
2022-12-17T21:28:51.560Z,86.58
2022-12-17T21:31:36.250Z,86.32
2022-12-17T21:34:04.772Z,86.84
2022-12-17T21:36:33.670Z,87.17
2022-12-17T21:39:00.741Z,87.10
2022-12-17T21:41:32.263Z,86.83
2022-12-17T21:44:00.762Z,86.69
2022-12-17T21:46:28.827Z,87.26
2022-12-17T21:48:57.633Z,86.86
2022-12-17T21:51:24.713Z,87.33
2022-12-17T21:53:56.283Z,87.25
2022-12-17T21:56:23.359Z,87.68
2022-12-17T21:58:50.476Z,87.66
2022-12-17T22:01:24.887Z,87.43
2022-12-17T22:03:53.880Z,87.94
2022-12-17T22:06:25.809Z,87.19
2022-12-17T22:09:04.169Z,86.85
2022-12-17T22:11:36.414Z,86.51
2022-12-17T22:14:08.248Z,87.62
2022-12-17T22:16:41.994Z,87.67
2022-12-17T22:19:10.507Z,87.57
2022-12-17T22:21:39.140Z,87.62
2022-12-17T22:24:06.695Z,86.86
2022-12-17T22:26:36.723Z,87.23
2022-12-17T22:29:03.422Z,87.32
2022-12-17T22:31:48.529Z,86.63
2022-12-17T22:35:25.024Z,86.86
2022-12-17T22:38:21.582Z,87.03
2022-12-17T22:44:31.381Z,86.62
2022-12-17T22:44:41.150Z,87.23
2022-12-17T22:45:40.704Z,87.25
2022-12-17T22:48:12.597Z,86.60
2022-12-17T22:50:43.108Z,86.32
2022-12-17T22:53:26.137Z,85.52
2022-12-17T22:55:52.731Z,85.19
2022-12-17T22:58:20.064Z,85.92
2022-12-17T23:00:46.454Z,85.18
2022-12-17T23:03:12.917Z,85.03
2022-12-17T23:05:39.360Z,85.51
2022-12-17T23:08:05.866Z,86.45
2022-12-17T23:10:32.283Z,85.08
2022-12-17T23:12:58.720Z,85.82
2022-12-17T23:15:32.975Z,85.35
2022-12-17T23:18:01.354Z,85.60
2022-12-17T23:20:30.136Z,84.93
2022-12-17T23:22:56.858Z,84.98
2022-12-17T23:25:23.935Z,85.77
2022-12-17T23:27:51.083Z,85.89
2022-12-17T23:30:18.735Z,85.47
2022-12-17T23:32:45.556Z,85.11
2022-12-17T23:35:12.351Z,85.64
2022-12-17T23:37:40.328Z,85.72
2022-12-17T23:40:11.389Z,84.91
2022-12-17T23:42:38.131Z,85.28
2022-12-17T23:45:05.970Z,85.02
2022-12-17T23:47:32.362Z,84.48
2022-12-17T23:49:58.930Z,84.57
2022-12-17T23:52:25.325Z,84.91
2022-12-17T23:54:51.725Z,84.58
2022-12-17T23:57:18.040Z,85.48
2022-12-17T23:59:44.410Z,84.54
